sensor_id;sensor_type;location;lat;lon;timestamp;pressure;altitude;pressure_sealevel;temperature;humidity
56270;BME280;42176;43.240;27.880;2023-05-09T00:02:24;100709.81;;;10.41;100.00
56270;BME280;42176;43.240;27.880;2023-05-09T00:04:50;100699.59;;;10.04;100.00
56270;BME280;42176;43.240;27.880;2023-05-09T00:07:16;100696.69;;;9.37;100.00
56270;BME280;42176;43.240;27.880;2023-05-09T00:09:41;100709.69;;;9.65;100.00
56270;BME280;42176;43.240;27.880;2023-05-09T00:12:07;100706.78;;;9.93;100.00
56270;BME280;42176;43.240;27.880;2023-05-09T00:14:33;100692.50;;;10.06;100.00
56270;BME280;42176;43.240;27.880;2023-05-09T00:16:58;100681.72;;;10.25;100.00
56270;BME280;42176;43.240;27.880;2023-05-09T00:19:24;100695.69;;;9.50;100.00
56270;BME280;42176;43.240;27.880;2023-05-09T00:21:50;100691.25;;;9.55;100.00
56270;BME280;42176;43.240;27.880;2023-05-09T00:24:16;100699.78;;;9.85;100.00
56270;BME280;42176;43.240;27.880;2023-05-09T00:26:41;100695.22;;;10.01;100.00
56270;BME280;42176;43.240;27.880;2023-05-09T00:29:07;100694.06;;;10.26;100.00
56270;BME280;42176;43.240;27.880;2023-05-09T00:31:32;100697.47;;;10.40;100.00
56270;BME280;42176;43.240;27.880;2023-05-09T00:33:57;100691.00;;;10.61;100.00
56270;BME280;42176;43.240;27.880;2023-05-09T00:36:23;100698.88;;;10.66;100.00
56270;BME280;42176;43.240;27.880;2023-05-09T00:38:48;100704.94;;;10.76;100.00
56270;BME280;42176;43.240;27.880;2023-05-09T00:41:14;100698.63;;;10.85;100.00
56270;BME280;42176;43.240;27.880;2023-05-09T00:43:39;100699.81;;;10.63;100.00
56270;BME280;42176;43.240;27.880;2023-05-09T00:46:05;100707.16;;;9.54;100.00
56270;BME280;42176;43.240;27.880;2023-05-09T00:48:30;100726.63;;;9.42;100.00
56270;BME280;42176;43.240;27.880;2023-05-09T00:50:56;100723.78;;;9.67;100.00
56270;BME280;42176;43.240;27.880;2023-05-09T00:53:21;100731.50;;;9.95;100.00
56270;BME280;42176;43.240;27.880;2023-05-09T00:55:48;100736.63;;;10.10;100.00
56270;BME280;42176;43.240;27.880;2023-05-09T00:58:14;100724.13;;;10.20;100.00
56270;BME280;42176;43.240;27.880;2023-05-09T01:00:40;100727.59;;;9.33;100.00
56270;BME280;42176;43.240;27.880;2023-05-09T01:03:06;100730.91;;;9.60;100.00
56270;BME280;42176;43.240;27.880;2023-05-09T01:05:54;100741.31;;;9.82;100.00
56270;BME280;42176;43.240;27.880;2023-05-09T01:11:31;100731.91;;;9.48;100.00
56270;BME280;42176;43.240;27.880;2023-05-09T01:14:11;100738.75;;;9.71;100.00
56270;BME280;42176;43.240;27.880;2023-05-09T01:16:57;100730.53;;;10.03;100.00
56270;BME280;42176;43.240;27.880;2023-05-09T01:19:56;100722.25;;;10.30;100.00
56270;BME280;42176;43.240;27.880;2023-05-09T01:22:34;100721.09;;;9.70;100.00
56270;BME280;42176;43.240;27.880;2023-05-09T01:25:19;100725.53;;;9.72;100.00
56270;BME280;42176;43.240;27.880;2023-05-09T01:30:52;100708.09;;;9.43;100.00
56270;BME280;42176;43.240;27.880;2023-05-09T01:33:20;100703.56;;;9.59;100.00
56270;BME280;42176;43.240;27.880;2023-05-09T01:35:50;100701.53;;;9.86;100.00
56270;BME280;42176;43.240;27.880;2023-05-09T01:38:21;100690.81;;;9.99;100.00
56270;BME280;42176;43.240;27.880;2023-05-09T01:40:51;100701.22;;;10.17;100.00
56270;BME280;42176;43.240;27.880;2023-05-09T01:43:18;100695.81;;;10.27;100.00
56270;BME280;42176;43.240;27.880;2023-05-09T01:45:48;100693.97;;;10.32;100.00
56270;BME280;42176;43.240;27.880;2023-05-09T01:48:15;100693.94;;;10.35;100.00
56270;BME280;42176;43.240;27.880;2023-05-09T01:50:43;100694.44;;;9.92;100.00
56270;BME280;42176;43.240;27.880;2023-05-09T01:53:10;100702.25;;;8.99;100.00
56270;BME280;42176;43.240;27.880;2023-05-09T01:55:38;100709.22;;;9.13;100.00
56270;BME280;42176;43.240;27.880;2023-05-09T01:58:08;100705.47;;;9.42;100.00
56270;BME280;42176;43.240;27.880;2023-05-09T02:00:35;100703.53;;;9.63;100.00
56270;BME280;42176;43.240;27.880;2023-05-09T02:03:02;100706.84;;;9.83;100.00
56270;BME280;42176;43.240;27.880;2023-05-09T02:05:29;100720.59;;;9.21;100.00
56270;BME280;42176;43.240;27.880;2023-05-09T02:07:56;100721.63;;;9.02;100.00
56270;BME280;42176;43.240;27.880;2023-05-09T02:10:28;100713.53;;;9.26;100.00
56270;BME280;42176;43.240;27.880;2023-05-09T02:12:54;100711.53;;;9.53;100.00
56270;BME280;42176;43.240;27.880;2023-05-09T02:15:21;100724.75;;;9.59;100.00
56270;BME280;42176;43.240;27.880;2023-05-09T02:17:47;100721.69;;;8.92;100.00
56270;BME280;42176;43.240;27.880;2023-05-09T02:20:12;100733.00;;;9.16;100.00
56270;BME280;42176;43.240;27.880;2023-05-09T02:22:39;100724.00;;;9.40;100.00
56270;BME280;42176;43.240;27.880;2023-05-09T02:25:06;100727.41;;;9.56;100.00
56270;BME280;42176;43.240;27.880;2023-05-09T02:27:33;100721.06;;;9.76;100.00
56270;BME280;42176;43.240;27.880;2023-05-09T02:30:02;100719.31;;;9.72;100.00
56270;BME280;42176;43.240;27.880;2023-05-09T02:32:30;100724.31;;;8.92;100.00
56270;BME280;42176;43.240;27.880;2023-05-09T02:34:58;100733.81;;;9.24;100.00
56270;BME280;42176;43.240;27.880;2023-05-09T02:37:25;100743.34;;;9.49;100.00
56270;BME280;42176;43.240;27.880;2023-05-09T02:39:51;100726.41;;;9.67;100.00
56270;BME280;42176;43.240;27.880;2023-05-09T02:42:22;100731.78;;;9.64;100.00
56270;BME280;42176;43.240;27.880;2023-05-09T02:44:50;100725.22;;;8.88;100.00
56270;BME280;42176;43.240;27.880;2023-05-09T02:47:15;100741.75;;;9.24;100.00
56270;BME280;42176;43.240;27.880;2023-05-09T02:49:41;100741.59;;;9.48;100.00
56270;BME280;42176;43.240;27.880;2023-05-09T02:52:06;100731.00;;;9.48;100.00
56270;BME280;42176;43.240;27.880;2023-05-09T02:54:32;100723.59;;;8.59;100.00
56270;BME280;42176;43.240;27.880;2023-05-09T02:56:57;100732.22;;;8.98;100.00
56270;BME280;42176;43.240;27.880;2023-05-09T02:59:24;100740.84;;;9.28;100.00
56270;BME280;42176;43.240;27.880;2023-05-09T03:01:50;100730.09;;;9.50;100.00
56270;BME280;42176;43.240;27.880;2023-05-09T03:04:16;100715.63;;;9.92;100.00
56270;BME280;42176;43.240;27.880;2023-05-09T03:06:42;100717.13;;;9.14;100.00
56270;BME280;42176;43.240;27.880;2023-05-09T03:09:08;100733.81;;;9.24;100.00
56270;BME280;42176;43.240;27.880;2023-05-09T03:11:34;100731.84;;;9.51;100.00
56270;BME280;42176;43.240;27.880;2023-05-09T03:14:01;100724.59;;;9.75;100.00
56270;BME280;42176;43.240;27.880;2023-05-09T03:16:27;100715.59;;;9.95;100.00
56270;BME280;42176;43.240;27.880;2023-05-09T03:18:52;100727.81;;;10.08;100.00
56270;BME280;42176;43.240;27.880;2023-05-09T03:21:17;100717.53;;;9.77;100.00
56270;BME280;42176;43.240;27.880;2023-05-09T03:23:43;100739.19;;;9.15;100.00
56270;BME280;42176;43.240;27.880;2023-05-09T03:26:08;100745.19;;;9.39;100.00
56270;BME280;42176;43.240;27.880;2023-05-09T03:28:34;100746.75;;;9.65;100.00
56270;BME280;42176;43.240;27.880;2023-05-09T03:31:00;100736.69;;;10.01;100.00
56270;BME280;42176;43.240;27.880;2023-05-09T03:33:25;100737.34;;;9.26;100.00
56270;BME280;42176;43.240;27.880;2023-05-09T03:35:51;100753.19;;;9.33;100.00
56270;BME280;42176;43.240;27.880;2023-05-09T03:38:16;100749.44;;;9.58;100.00
56270;BME280;42176;43.240;27.880;2023-05-09T03:40:41;100756.63;;;9.44;100.00
56270;BME280;42176;43.240;27.880;2023-05-09T03:43:07;100760.16;;;9.40;100.00
56270;BME280;42176;43.240;27.880;2023-05-09T03:45:32;100747.66;;;9.60;100.00
56270;BME280;42176;43.240;27.880;2023-05-09T03:48:00;100744.03;;;9.71;100.00
56270;BME280;42176;43.240;27.880;2023-05-09T03:50:25;100745.28;;;9.26;100.00
56270;BME280;42176;43.240;27.880;2023-05-09T03:52:51;100759.09;;;9.64;100.00
56270;BME280;42176;43.240;27.880;2023-05-09T03:55:16;100756.22;;;9.90;100.00
56270;BME280;42176;43.240;27.880;2023-05-09T03:57:42;100753.25;;;10.23;100.00
56270;BME280;42176;43.240;27.880;2023-05-09T04:02:42;100774.81;;;9.84;100.00
56270;BME280;42176;43.240;27.880;2023-05-09T04:05:08;100778.06;;;10.16;100.00
56270;BME280;42176;43.240;27.880;2023-05-09T04:07:33;100768.03;;;10.47;100.00
56270;BME280;42176;43.240;27.880;2023-05-09T04:09:59;100751.84;;;10.72;100.00
56270;BME280;42176;43.240;27.880;2023-05-09T04:12:24;100754.78;;;10.47;100.00
56270;BME280;42176;43.240;27.880;2023-05-09T04:14:50;100764.16;;;9.92;100.00
56270;BME280;42176;43.240;27.880;2023-05-09T04:17:16;100767.28;;;10.34;100.00
56270;BME280;42176;43.240;27.880;2023-05-09T04:19:42;100781.97;;;10.65;100.00
56270;BME280;42176;43.240;27.880;2023-05-09T04:22:07;100764.78;;;10.17;100.00
56270;BME280;42176;43.240;27.880;2023-05-09T04:24:33;100784.66;;;9.68;100.00
56270;BME280;42176;43.240;27.880;2023-05-09T04:26:58;100793.16;;;10.06;100.00
56270;BME280;42176;43.240;27.880;2023-05-09T04:29:25;100740.00;;;10.25;100.00
56270;BME280;42176;43.240;27.880;2023-05-09T04:31:50;100781.06;;;9.80;100.00
56270;BME280;42176;43.240;27.880;2023-05-09T04:34:16;100795.78;;;10.08;100.00
56270;BME280;42176;43.240;27.880;2023-05-09T04:36:41;100791.91;;;10.44;100.00
56270;BME280;42176;43.240;27.880;2023-05-09T04:39:06;100775.78;;;10.66;100.00
56270;BME280;42176;43.240;27.880;2023-05-09T04:41:32;100776.31;;;10.93;100.00
56270;BME280;42176;43.240;27.880;2023-05-09T04:43:58;100788.81;;;9.99;100.00
56270;BME280;42176;43.240;27.880;2023-05-09T04:46:23;100794.69;;;10.29;100.00
56270;BME280;42176;43.240;27.880;2023-05-09T04:48:49;100798.81;;;10.61;100.00
56270;BME280;42176;43.240;27.880;2023-05-09T04:51:15;100792.28;;;10.90;100.00
56270;BME280;42176;43.240;27.880;2023-05-09T04:53:40;100794.16;;;10.81;100.00
56270;BME280;42176;43.240;27.880;2023-05-09T04:56:06;100796.75;;;9.99;100.00
56270;BME280;42176;43.240;27.880;2023-05-09T04:58:31;100801.53;;;10.55;100.00
56270;BME280;42176;43.240;27.880;2023-05-09T05:00:58;100797.44;;;11.02;100.00
56270;BME280;42176;43.240;27.880;2023-05-09T05:03:24;100803.88;;;11.47;100.00
56270;BME280;42176;43.240;27.880;2023-05-09T05:05:49;100796.38;;;11.73;100.00
56270;BME280;42176;43.240;27.880;2023-05-09T05:08:14;100803.16;;;11.93;100.00
56270;BME280;42176;43.240;27.880;2023-05-09T05:10:40;100805.53;;;12.10;100.00
56270;BME280;42176;43.240;27.880;2023-05-09T05:13:05;100802.59;;;12.27;100.00
56270;BME280;42176;43.240;27.880;2023-05-09T05:15:31;100788.03;;;12.47;100.00
56270;BME280;42176;43.240;27.880;2023-05-09T05:17:56;100791.47;;;12.52;100.00
56270;BME280;42176;43.240;27.880;2023-05-09T05:20:22;100795.59;;;12.69;100.00
56270;BME280;42176;43.240;27.880;2023-05-09T05:22:47;100792.59;;;13.66;100.00
56270;BME280;42176;43.240;27.880;2023-05-09T05:25:13;100785.13;;;13.80;100.00
56270;BME280;42176;43.240;27.880;2023-05-09T05:27:38;100791.03;;;14.28;99.54
56270;BME280;42176;43.240;27.880;2023-05-09T05:30:04;100799.88;;;14.30;96.75
56270;BME280;42176;43.240;27.880;2023-05-09T05:32:30;100793.06;;;14.83;94.06
56270;BME280;42176;43.240;27.880;2023-05-09T05:34:55;100807.03;;;14.59;95.30
56270;BME280;42176;43.240;27.880;2023-05-09T05:37:21;100800.53;;;14.71;94.51
56270;BME280;42176;43.240;27.880;2023-05-09T05:39:47;100794.41;;;14.66;95.02
56270;BME280;42176;43.240;27.880;2023-05-09T05:42:13;100795.69;;;14.53;94.27
56270;BME280;42176;43.240;27.880;2023-05-09T05:44:38;100820.59;;;14.52;94.45
56270;BME280;42176;43.240;27.880;2023-05-09T05:47:04;100795.03;;;14.77;92.80
56270;BME280;42176;43.240;27.880;2023-05-09T05:49:29;100803.78;;;15.70;87.57
56270;BME280;42176;43.240;27.880;2023-05-09T05:51:55;100782.78;;;16.38;82.26
56270;BME280;42176;43.240;27.880;2023-05-09T05:57:04;100781.69;;;19.25;60.77
56270;BME280;42176;43.240;27.880;2023-05-09T05:59:30;100793.00;;;19.31;59.44
56270;BME280;42176;43.240;27.880;2023-05-09T06:01:55;100795.41;;;19.38;59.03
56270;BME280;42176;43.240;27.880;2023-05-09T06:04:21;100794.41;;;20.65;53.04
56270;BME280;42176;43.240;27.880;2023-05-09T06:06:47;100799.56;;;21.67;48.44
56270;BME280;42176;43.240;27.880;2023-05-09T06:09:12;100811.88;;;20.22;51.25
56270;BME280;42176;43.240;27.880;2023-05-09T06:11:38;100808.16;;;19.71;54.33
56270;BME280;42176;43.240;27.880;2023-05-09T06:14:04;100796.16;;;21.16;50.66
56270;BME280;42176;43.240;27.880;2023-05-09T06:16:29;100793.13;;;22.00;47.84
56270;BME280;42176;43.240;27.880;2023-05-09T06:18:55;100803.28;;;20.49;50.73
56270;BME280;42176;43.240;27.880;2023-05-09T06:21:20;100801.44;;;19.80;53.67
56270;BME280;42176;43.240;27.880;2023-05-09T06:23:48;100793.97;;;19.30;55.59
56270;BME280;42176;43.240;27.880;2023-05-09T06:26:14;100818.63;;;19.00;56.93
56270;BME280;42176;43.240;27.880;2023-05-09T06:28:39;100792.66;;;19.20;56.78
56270;BME280;42176;43.240;27.880;2023-05-09T06:31:05;100803.19;;;18.85;57.99
56270;BME280;42176;43.240;27.880;2023-05-09T06:33:31;100793.22;;;19.27;55.10
56270;BME280;42176;43.240;27.880;2023-05-09T06:35:58;100805.13;;;18.83;56.02
56270;BME280;42176;43.240;27.880;2023-05-09T06:38:24;100819.50;;;19.58;53.51
56270;BME280;42176;43.240;27.880;2023-05-09T06:40:49;100817.75;;;18.39;57.99
56270;BME280;42176;43.240;27.880;2023-05-09T06:43:15;100815.91;;;17.32;62.77
56270;BME280;42176;43.240;27.880;2023-05-09T06:45:40;100816.59;;;16.89;66.04
56270;BME280;42176;43.240;27.880;2023-05-09T06:48:06;100814.13;;;16.83;67.60
56270;BME280;42176;43.240;27.880;2023-05-09T06:50:31;100818.22;;;17.41;65.13
56270;BME280;42176;43.240;27.880;2023-05-09T06:52:57;100815.09;;;17.30;64.83
56270;BME280;42176;43.240;27.880;2023-05-09T06:55:22;100818.22;;;16.94;65.73
56270;BME280;42176;43.240;27.880;2023-05-09T06:57:48;100812.59;;;16.52;66.66
56270;BME280;42176;43.240;27.880;2023-05-09T07:00:14;100817.59;;;16.11;68.85
56270;BME280;42176;43.240;27.880;2023-05-09T07:02:39;100807.88;;;16.08;69.73
56270;BME280;42176;43.240;27.880;2023-05-09T07:05:07;100810.59;;;16.07;70.31
56270;BME280;42176;43.240;27.880;2023-05-09T07:07:33;100803.13;;;16.17;69.72
56270;BME280;42176;43.240;27.880;2023-05-09T07:09:58;100804.94;;;16.90;66.78
56270;BME280;42176;43.240;27.880;2023-05-09T07:12:25;100793.75;;;18.36;60.00
56270;BME280;42176;43.240;27.880;2023-05-09T07:14:51;100795.00;;;19.09;55.72
56270;BME280;42176;43.240;27.880;2023-05-09T07:17:16;100794.03;;;18.51;55.99
56270;BME280;42176;43.240;27.880;2023-05-09T07:19:41;100801.78;;;17.50;61.07
56270;BME280;42176;43.240;27.880;2023-05-09T07:22:07;100821.00;;;17.16;62.62
56270;BME280;42176;43.240;27.880;2023-05-09T07:24:32;100806.38;;;16.52;65.68
56270;BME280;42176;43.240;27.880;2023-05-09T07:27:01;100817.50;;;16.14;68.59
56270;BME280;42176;43.240;27.880;2023-05-09T07:29:27;100812.19;;;15.57;73.13
56270;BME280;42176;43.240;27.880;2023-05-09T07:31:55;100847.53;;;15.09;76.30
56270;BME280;42176;43.240;27.880;2023-05-09T07:34:20;100824.94;;;14.89;79.50
56270;BME280;42176;43.240;27.880;2023-05-09T07:36:47;100814.84;;;14.69;81.24
56270;BME280;42176;43.240;27.880;2023-05-09T07:39:12;100826.97;;;14.48;83.78
56270;BME280;42176;43.240;27.880;2023-05-09T07:41:38;100828.28;;;14.31;85.00
56270;BME280;42176;43.240;27.880;2023-05-09T07:44:03;100825.81;;;14.23;85.01
56270;BME280;42176;43.240;27.880;2023-05-09T07:46:29;100834.09;;;14.12;85.50
56270;BME280;42176;43.240;27.880;2023-05-09T07:48:54;100830.97;;;13.95;86.19
56270;BME280;42176;43.240;27.880;2023-05-09T07:51:22;100823.88;;;13.94;86.07
56270;BME280;42176;43.240;27.880;2023-05-09T07:53:48;100832.28;;;14.13;85.84
56270;BME280;42176;43.240;27.880;2023-05-09T07:56:13;100830.81;;;14.36;84.78
56270;BME280;42176;43.240;27.880;2023-05-09T07:58:39;100827.06;;;13.72;85.62
56270;BME280;42176;43.240;27.880;2023-05-09T08:01:04;100842.75;;;12.12;99.78
56270;BME280;42176;43.240;27.880;2023-05-09T08:03:29;100823.94;;;12.70;100.00
56270;BME280;42176;43.240;27.880;2023-05-09T08:05:55;100840.31;;;13.36;94.09
56270;BME280;42176;43.240;27.880;2023-05-09T08:08:21;100837.19;;;12.24;100.00
56270;BME280;42176;43.240;27.880;2023-05-09T08:10:47;100825.22;;;12.94;100.00
56270;BME280;42176;43.240;27.880;2023-05-09T08:13:13;100824.16;;;13.45;91.45
56270;BME280;42176;43.240;27.880;2023-05-09T08:15:38;100844.75;;;12.46;97.48
56270;BME280;42176;43.240;27.880;2023-05-09T08:18:04;100831.50;;;12.91;96.84
56270;BME280;42176;43.240;27.880;2023-05-09T08:20:30;100821.88;;;13.27;94.68
56270;BME280;42176;43.240;27.880;2023-05-09T08:22:56;100817.50;;;13.65;93.65
56270;BME280;42176;43.240;27.880;2023-05-09T08:25:22;100819.31;;;12.78;93.97
56270;BME280;42176;43.240;27.880;2023-05-09T08:27:47;100831.63;;;12.85;99.05
56270;BME280;42176;43.240;27.880;2023-05-09T08:30:13;100821.22;;;13.15;91.30
56270;BME280;42176;43.240;27.880;2023-05-09T08:32:38;100828.94;;;13.28;91.35
56270;BME280;42176;43.240;27.880;2023-05-09T08:35:04;100819.66;;;13.47;90.06
56270;BME280;42176;43.240;27.880;2023-05-09T08:37:30;100823.16;;;13.87;85.26
56270;BME280;42176;43.240;27.880;2023-05-09T08:39:56;100824.09;;;14.21;83.91
56270;BME280;42176;43.240;27.880;2023-05-09T08:42:22;100820.69;;;14.49;81.61
56270;BME280;42176;43.240;27.880;2023-05-09T08:44:50;100814.84;;;14.67;78.08
56270;BME280;42176;43.240;27.880;2023-05-09T08:47:16;100833.13;;;12.99;89.85
56270;BME280;42176;43.240;27.880;2023-05-09T08:49:43;100824.41;;;13.72;88.45
56270;BME280;42176;43.240;27.880;2023-05-09T08:52:09;100821.50;;;14.18;81.28
56270;BME280;42176;43.240;27.880;2023-05-09T08:54:36;100817.00;;;14.53;79.66
56270;BME280;42176;43.240;27.880;2023-05-09T08:57:02;100829.66;;;14.79;76.85
56270;BME280;42176;43.240;27.880;2023-05-09T08:59:27;100817.78;;;14.91;77.21
56270;BME280;42176;43.240;27.880;2023-05-09T09:01:54;100805.59;;;15.11;74.50
56270;BME280;42176;43.240;27.880;2023-05-09T09:04:21;100814.25;;;15.49;68.87
56270;BME280;42176;43.240;27.880;2023-05-09T09:06:46;100804.94;;;15.89;66.82
56270;BME280;42176;43.240;27.880;2023-05-09T09:09:13;100801.75;;;16.05;65.61
56270;BME280;42176;43.240;27.880;2023-05-09T09:11:41;100801.69;;;14.28;72.11
56270;BME280;42176;43.240;27.880;2023-05-09T09:14:15;100802.16;;;14.77;72.09
56270;BME280;42176;43.240;27.880;2023-05-09T09:16:46;100797.84;;;15.33;68.44
56270;BME280;42176;43.240;27.880;2023-05-09T09:19:16;100796.63;;;15.98;65.62
56270;BME280;42176;43.240;27.880;2023-05-09T09:21:44;100791.13;;;16.28;64.82
56270;BME280;42176;43.240;27.880;2023-05-09T09:24:12;100792.13;;;16.26;65.88
56270;BME280;42176;43.240;27.880;2023-05-09T09:26:48;100800.81;;;16.33;66.72
56270;BME280;42176;43.240;27.880;2023-05-09T09:29:14;100788.47;;;16.28;65.33
56270;BME280;42176;43.240;27.880;2023-05-09T09:31:46;100780.81;;;16.43;64.67
56270;BME280;42176;43.240;27.880;2023-05-09T09:34:13;100797.50;;;16.24;64.43
56270;BME280;42176;43.240;27.880;2023-05-09T09:36:43;100787.81;;;16.22;64.25
56270;BME280;42176;43.240;27.880;2023-05-09T09:39:12;100803.91;;;16.20;65.01
56270;BME280;42176;43.240;27.880;2023-05-09T09:41:38;100796.66;;;16.24;64.47
56270;BME280;42176;43.240;27.880;2023-05-09T09:44:07;100788.81;;;15.92;67.42
56270;BME280;42176;43.240;27.880;2023-05-09T09:49:07;100797.34;;;14.24;82.65
56270;BME280;42176;43.240;27.880;2023-05-09T09:51:33;100806.88;;;13.99;87.92
56270;BME280;42176;43.240;27.880;2023-05-09T09:54:01;100798.28;;;13.88;91.08
56270;BME280;42176;43.240;27.880;2023-05-09T09:56:46;100797.13;;;13.62;91.80
56270;BME280;42176;43.240;27.880;2023-05-09T09:59:13;100792.75;;;13.60;89.23
56270;BME280;42176;43.240;27.880;2023-05-09T10:02:06;100816.75;;;13.17;89.87
56270;BME280;42176;43.240;27.880;2023-05-09T10:04:34;100827.28;;;11.79;100.00
56270;BME280;42176;43.240;27.880;2023-05-09T10:07:02;100831.03;;;12.22;100.00
56270;BME280;42176;43.240;27.880;2023-05-09T10:09:29;100832.16;;;12.57;100.00
56270;BME280;42176;43.240;27.880;2023-05-09T10:11:55;100821.88;;;11.84;100.00
56270;BME280;42176;43.240;27.880;2023-05-09T10:14:25;100832.75;;;12.26;100.00
56270;BME280;42176;43.240;27.880;2023-05-09T10:16:53;100825.78;;;12.66;100.00
56270;BME280;42176;43.240;27.880;2023-05-09T10:19:20;100834.91;;;12.98;94.56
56270;BME280;42176;43.240;27.880;2023-05-09T10:21:57;100816.47;;;13.30;90.19
56270;BME280;42176;43.240;27.880;2023-05-09T10:24:31;100818.56;;;13.15;89.15
56270;BME280;42176;43.240;27.880;2023-05-09T10:27:02;100822.72;;;12.86;92.15
56270;BME280;42176;43.240;27.880;2023-05-09T10:29:36;100834.53;;;13.15;92.05
56270;BME280;42176;43.240;27.880;2023-05-09T10:32:10;100824.69;;;13.19;90.96
56270;BME280;42176;43.240;27.880;2023-05-09T10:34:41;100815.88;;;13.58;88.41
56270;BME280;42176;43.240;27.880;2023-05-09T10:37:11;100812.53;;;13.49;88.85
56270;BME280;42176;43.240;27.880;2023-05-09T10:39:56;100821.56;;;13.42;87.06
56270;BME280;42176;43.240;27.880;2023-05-09T10:42:22;100807.19;;;13.49;86.38
56270;BME280;42176;43.240;27.880;2023-05-09T10:44:50;100810.78;;;13.48;87.05
56270;BME280;42176;43.240;27.880;2023-05-09T10:47:18;100814.28;;;13.86;86.26
56270;BME280;42176;43.240;27.880;2023-05-09T10:49:45;100810.69;;;14.24;83.94
56270;BME280;42176;43.240;27.880;2023-05-09T10:52:10;100801.84;;;14.55;82.19
56270;BME280;42176;43.240;27.880;2023-05-09T10:54:36;100782.75;;;14.37;82.41
56270;BME280;42176;43.240;27.880;2023-05-09T10:57:02;100804.16;;;14.36;82.37
56270;BME280;42176;43.240;27.880;2023-05-09T10:59:39;100803.34;;;13.22;90.65
56270;BME280;42176;43.240;27.880;2023-05-09T11:02:05;100802.63;;;13.91;87.99
56270;BME280;42176;43.240;27.880;2023-05-09T11:04:31;100823.34;;;14.15;82.32
56270;BME280;42176;43.240;27.880;2023-05-09T11:06:58;100817.09;;;14.50;78.92
56270;BME280;42176;43.240;27.880;2023-05-09T11:09:32;100796.50;;;14.88;75.69
56270;BME280;42176;43.240;27.880;2023-05-09T11:11:59;100804.66;;;14.49;77.86
56270;BME280;42176;43.240;27.880;2023-05-09T11:17:06;100807.06;;;12.71;88.72
56270;BME280;42176;43.240;27.880;2023-05-09T11:22:12;100810.75;;;13.07;100.00
56270;BME280;42176;43.240;27.880;2023-05-09T11:24:41;100819.47;;;13.14;100.00
56270;BME280;42176;43.240;27.880;2023-05-09T11:29:51;100810.84;;;12.60;100.00
56270;BME280;42176;43.240;27.880;2023-05-09T11:32:18;100838.16;;;12.20;100.00
56270;BME280;42176;43.240;27.880;2023-05-09T11:34:44;100835.25;;;11.81;100.00
56270;BME280;42176;43.240;27.880;2023-05-09T11:37:15;100842.34;;;11.79;100.00
56270;BME280;42176;43.240;27.880;2023-05-09T11:42:23;100831.44;;;11.38;100.00
56270;BME280;42176;43.240;27.880;2023-05-09T11:44:48;100840.56;;;11.81;100.00
56270;BME280;42176;43.240;27.880;2023-05-09T11:47:15;100831.69;;;11.82;100.00
56270;BME280;42176;43.240;27.880;2023-05-09T11:49:43;100826.41;;;11.77;100.00
56270;BME280;42176;43.240;27.880;2023-05-09T11:52:09;100831.25;;;12.10;100.00
56270;BME280;42176;43.240;27.880;2023-05-09T11:54:37;100847.78;;;12.26;100.00
56270;BME280;42176;43.240;27.880;2023-05-09T11:57:03;100837.31;;;11.60;100.00
56270;BME280;42176;43.240;27.880;2023-05-09T11:59:29;100835.81;;;11.40;100.00
56270;BME280;42176;43.240;27.880;2023-05-09T12:01:55;100831.25;;;11.50;100.00
56270;BME280;42176;43.240;27.880;2023-05-09T12:04:20;100844.22;;;11.70;100.00
56270;BME280;42176;43.240;27.880;2023-05-09T12:06:47;100838.69;;;11.86;100.00
56270;BME280;42176;43.240;27.880;2023-05-09T12:09:15;100835.09;;;11.29;100.00
56270;BME280;42176;43.240;27.880;2023-05-09T12:11:48;100837.63;;;11.38;100.00
56270;BME280;42176;43.240;27.880;2023-05-09T12:14:28;100829.16;;;11.72;100.00
56270;BME280;42176;43.240;27.880;2023-05-09T12:16:54;100830.13;;;11.67;100.00
56270;BME280;42176;43.240;27.880;2023-05-09T12:19:22;100829.06;;;11.79;100.00
56270;BME280;42176;43.240;27.880;2023-05-09T12:21:47;100828.13;;;11.83;100.00
56270;BME280;42176;43.240;27.880;2023-05-09T12:24:13;100824.41;;;11.93;100.00
56270;BME280;42176;43.240;27.880;2023-05-09T12:26:44;100816.34;;;12.01;100.00
56270;BME280;42176;43.240;27.880;2023-05-09T12:29:10;100820.75;;;12.00;100.00
56270;BME280;42176;43.240;27.880;2023-05-09T12:31:35;100819.19;;;11.87;100.00
56270;BME280;42176;43.240;27.880;2023-05-09T12:34:01;100813.22;;;11.11;100.00
56270;BME280;42176;43.240;27.880;2023-05-09T12:36:33;100807.94;;;11.08;100.00
56270;BME280;42176;43.240;27.880;2023-05-09T12:38:58;100813.78;;;11.34;100.00
56270;BME280;42176;43.240;27.880;2023-05-09T12:41:24;100818.06;;;11.46;100.00
56270;BME280;42176;43.240;27.880;2023-05-09T12:43:49;100815.31;;;11.52;100.00
56270;BME280;42176;43.240;27.880;2023-05-09T12:46:20;100811.84;;;10.79;100.00
56270;BME280;42176;43.240;27.880;2023-05-09T12:48:46;100810.69;;;11.01;100.00
56270;BME280;42176;43.240;27.880;2023-05-09T12:51:20;100821.00;;;11.24;100.00
56270;BME280;42176;43.240;27.880;2023-05-09T12:53:45;100823.41;;;11.42;100.00
56270;BME280;42176;43.240;27.880;2023-05-09T12:56:13;100822.44;;;11.48;100.00
56270;BME280;42176;43.240;27.880;2023-05-09T12:58:52;100831.31;;;10.78;100.00
56270;BME280;42176;43.240;27.880;2023-05-09T13:01:19;100809.81;;;11.03;100.00
56270;BME280;42176;43.240;27.880;2023-05-09T13:03:51;100826.28;;;11.29;100.00